sensor_id;sensor_type;location;lat;lon;timestamp;pressure;altitude;pressure_sealevel;temperature;humidity
8697;BME280;4385;48.848;8.924;2023-09-07T00:01:55;97763.97;;;22.46;100.00
8697;BME280;4385;48.848;8.924;2023-09-07T00:04:21;97765.56;;;22.48;100.00
8697;BME280;4385;48.848;8.924;2023-09-07T00:06:50;97760.50;;;22.47;100.00
8697;BME280;4385;48.848;8.924;2023-09-07T00:09:16;97760.50;;;22.47;100.00
8697;BME280;4385;48.848;8.924;2023-09-07T00:11:44;97770.00;;;22.45;100.00
8697;BME280;4385;48.848;8.924;2023-09-07T00:14:09;97764.91;;;22.43;100.00
8697;BME280;4385;48.848;8.924;2023-09-07T00:16:35;97760.66;;;22.42;100.00
8697;BME280;4385;48.848;8.924;2023-09-07T00:19:01;97770.06;;;22.43;100.00
8697;BME280;4385;48.848;8.924;2023-09-07T00:21:28;97757.25;;;22.41;100.00
8697;BME280;4385;48.848;8.924;2023-09-07T00:23:53;97755.56;;;22.40;100.00
8697;BME280;4385;48.848;8.924;2023-09-07T00:26:18;97756.47;;;22.39;100.00
8697;BME280;4385;48.848;8.924;2023-09-07T00:28:44;97757.38;;;22.38;100.00
8697;BME280;4385;48.848;8.924;2023-09-07T00:31:09;97759.88;;;22.40;100.00
8697;BME280;4385;48.848;8.924;2023-09-07T00:33:34;97757.31;;;22.40;100.00
8697;BME280;4385;48.848;8.924;2023-09-07T00:36:01;97753.06;;;22.39;100.00
8697;BME280;4385;48.848;8.924;2023-09-07T00:38:27;97759.09;;;22.38;100.00
8697;BME280;4385;48.848;8.924;2023-09-07T00:40:52;97755.72;;;22.36;100.00
8697;BME280;4385;48.848;8.924;2023-09-07T00:43:18;97752.34;;;22.35;100.00
8697;BME280;4385;48.848;8.924;2023-09-07T00:45:43;97756.63;;;22.35;100.00
8697;BME280;4385;48.848;8.924;2023-09-07T00:48:08;97754.13;;;22.33;100.00
8697;BME280;4385;48.848;8.924;2023-09-07T00:50:34;97759.25;;;22.33;100.00
8697;BME280;4385;48.848;8.924;2023-09-07T00:53:00;97747.38;;;22.30;100.00
8697;BME280;4385;48.848;8.924;2023-09-07T00:55:27;97752.53;;;22.29;100.00
8697;BME280;4385;48.848;8.924;2023-09-07T00:57:53;97756.84;;;22.28;100.00
8697;BME280;4385;48.848;8.924;2023-09-07T01:00:18;97750.03;;;22.27;100.00
8697;BME280;4385;48.848;8.924;2023-09-07T01:02:43;97746.66;;;22.25;100.00
8697;BME280;4385;48.848;8.924;2023-09-07T01:05:10;97756.09;;;22.25;100.00
8697;BME280;4385;48.848;8.924;2023-09-07T01:07:40;97759.56;;;22.24;100.00
8697;BME280;4385;48.848;8.924;2023-09-07T01:10:08;97751.91;;;22.22;100.00
8697;BME280;4385;48.848;8.924;2023-09-07T01:12:33;97751.91;;;22.22;100.00
8697;BME280;4385;48.848;8.924;2023-09-07T01:14:58;97749.38;;;22.21;100.00
8697;BME280;4385;48.848;8.924;2023-09-07T01:17:24;97749.34;;;22.22;100.00
8697;BME280;4385;48.848;8.924;2023-09-07T01:19:51;97749.38;;;22.21;100.00
8697;BME280;4385;48.848;8.924;2023-09-07T01:22:21;97743.41;;;22.20;100.00
8697;BME280;4385;48.848;8.924;2023-09-07T01:24:48;97740.84;;;22.20;100.00
8697;BME280;4385;48.848;8.924;2023-09-07T01:27:14;97740.84;;;22.20;100.00
8697;BME280;4385;48.848;8.924;2023-09-07T01:29:40;97744.25;;;22.21;100.00
8697;BME280;4385;48.848;8.924;2023-09-07T01:32:06;97743.34;;;22.22;100.00
8697;BME280;4385;48.848;8.924;2023-09-07T01:34:31;97745.16;;;22.20;100.00
8697;BME280;4385;48.848;8.924;2023-09-07T01:36:56;97742.66;;;22.18;100.00
8697;BME280;4385;48.848;8.924;2023-09-07T01:39:22;97735.81;;;22.17;100.00
8697;BME280;4385;48.848;8.924;2023-09-07T01:41:47;97743.50;;;22.17;100.00
8697;BME280;4385;48.848;8.924;2023-09-07T01:44:13;97737.56;;;22.16;100.00
8697;BME280;4385;48.848;8.924;2023-09-07T01:46:38;97744.34;;;22.17;100.00
8697;BME280;4385;48.848;8.924;2023-09-07T01:49:03;97745.31;;;22.15;100.00
8697;BME280;4385;48.848;8.924;2023-09-07T01:51:29;97741.06;;;22.14;100.00
8697;BME280;4385;48.848;8.924;2023-09-07T01:53:54;97735.16;;;22.12;100.00
8697;BME280;4385;48.848;8.924;2023-09-07T01:56:20;97742.84;;;22.12;100.00
8697;BME280;4385;48.848;8.924;2023-09-07T01:58:45;97743.72;;;22.11;100.00
8697;BME280;4385;48.848;8.924;2023-09-07T02:01:21;97739.44;;;22.11;100.00
8697;BME280;4385;48.848;8.924;2023-09-07T02:03:47;97736.91;;;22.10;100.00
8697;BME280;4385;48.848;8.924;2023-09-07T02:06:12;97738.59;;;22.11;100.00
8697;BME280;4385;48.848;8.924;2023-09-07T02:08:38;97738.59;;;22.11;100.00
8697;BME280;4385;48.848;8.924;2023-09-07T02:11:05;97742.91;;;22.10;100.00
8697;BME280;4385;48.848;8.924;2023-09-07T02:13:30;97737.78;;;22.10;100.00
8697;BME280;4385;48.848;8.924;2023-09-07T02:15:56;97738.59;;;22.11;100.00
8697;BME280;4385;48.848;8.924;2023-09-07T02:18:21;97739.44;;;22.11;100.00
8697;BME280;4385;48.848;8.924;2023-09-07T02:20:46;97736.91;;;22.10;100.00
8697;BME280;4385;48.848;8.924;2023-09-07T02:23:11;97742.06;;;22.10;100.00
8697;BME280;4385;48.848;8.924;2023-09-07T02:25:37;97748.03;;;22.10;100.00
8697;BME280;4385;48.848;8.924;2023-09-07T02:28:02;97736.91;;;22.10;100.00
8697;BME280;4385;48.848;8.924;2023-09-07T02:30:27;97734.41;;;22.08;100.00
8697;BME280;4385;48.848;8.924;2023-09-07T02:32:53;97737.81;;;22.09;100.00
8697;BME280;4385;48.848;8.924;2023-09-07T02:35:18;97733.56;;;22.08;100.00
8697;BME280;4385;48.848;8.924;2023-09-07T02:37:43;97733.56;;;22.08;100.00
8697;BME280;4385;48.848;8.924;2023-09-07T02:40:09;97728.41;;;22.08;100.00
8697;BME280;4385;48.848;8.924;2023-09-07T02:42:34;97736.16;;;22.06;100.00
8697;BME280;4385;48.848;8.924;2023-09-07T02:44:59;97736.16;;;22.06;100.00
8697;BME280;4385;48.848;8.924;2023-09-07T02:47:25;97738.75;;;22.06;100.00
8697;BME280;4385;48.848;8.924;2023-09-07T02:49:50;97733.66;;;22.04;100.00
8697;BME280;4385;48.848;8.924;2023-09-07T02:52:15;97732.00;;;22.03;100.00
8697;BME280;4385;48.848;8.924;2023-09-07T02:54:41;97733.66;;;22.04;100.00
8697;BME280;4385;48.848;8.924;2023-09-07T02:57:07;97736.28;;;22.03;100.00
8697;BME280;4385;48.848;8.924;2023-09-07T02:59:32;97737.13;;;22.03;100.00
8697;BME280;4385;48.848;8.924;2023-09-07T03:01:57;97739.75;;;22.02;100.00
8697;BME280;4385;48.848;8.924;2023-09-07T03:04:22;97737.22;;;22.00;100.00
8697;BME280;4385;48.848;8.924;2023-09-07T03:06:48;97734.66;;;22.00;100.00
8697;BME280;4385;48.848;8.924;2023-09-07T03:09:14;97730.41;;;21.99;100.00
8697;BME280;4385;48.848;8.924;2023-09-07T03:11:39;97732.19;;;21.97;100.00
8697;BME280;4385;48.848;8.924;2023-09-07T03:14:04;97726.22;;;21.97;100.00
8697;BME280;4385;48.848;8.924;2023-09-07T03:16:30;97725.41;;;21.96;100.00
8697;BME280;4385;48.848;8.924;2023-09-07T03:18:56;97724.53;;;21.96;100.00
8697;BME280;4385;48.848;8.924;2023-09-07T03:21:21;97722.88;;;21.95;100.00
8697;BME280;4385;48.848;8.924;2023-09-07T03:23:50;97718.63;;;21.93;100.00
8697;BME280;4385;48.848;8.924;2023-09-07T03:26:17;97712.66;;;21.93;100.00
8697;BME280;4385;48.848;8.924;2023-09-07T03:28:42;97717.81;;;21.93;100.00
8697;BME280;4385;48.848;8.924;2023-09-07T03:31:07;97719.50;;;21.92;100.00
8697;BME280;4385;48.848;8.924;2023-09-07T03:33:32;97717.84;;;21.91;100.00
8697;BME280;4385;48.848;8.924;2023-09-07T03:35:58;97715.22;;;21.93;100.00
8697;BME280;4385;48.848;8.924;2023-09-07T03:38:24;97711.81;;;21.92;100.00
8697;BME280;4385;48.848;8.924;2023-09-07T03:40:49;97715.22;;;21.93;100.00
8697;BME280;4385;48.848;8.924;2023-09-07T03:43:14;97717.81;;;21.93;100.00
8697;BME280;4385;48.848;8.924;2023-09-07T03:45:40;97717.84;;;21.91;100.00
8697;BME280;4385;48.848;8.924;2023-09-07T03:48:05;97719.56;;;21.91;100.00
8697;BME280;4385;48.848;8.924;2023-09-07T03:50:31;97717.00;;;21.91;100.00
8697;BME280;4385;48.848;8.924;2023-09-07T03:52:56;97719.63;;;21.89;100.00
8697;BME280;4385;48.848;8.924;2023-09-07T03:55:21;97723.03;;;21.90;100.00
8697;BME280;4385;48.848;8.924;2023-09-07T03:57:46;97715.34;;;21.90;100.00
8697;BME280;4385;48.848;8.924;2023-09-07T04:00:13;97715.34;;;21.90;100.00
8697;BME280;4385;48.848;8.924;2023-09-07T04:02:39;97720.47;;;21.90;100.00
8697;BME280;4385;48.848;8.924;2023-09-07T04:05:05;97711.06;;;21.89;100.00
8697;BME280;4385;48.848;8.924;2023-09-07T04:07:31;97706.84;;;21.88;100.00
8697;BME280;4385;48.848;8.924;2023-09-07T04:09:56;97709.41;;;21.88;100.00
8697;BME280;4385;48.848;8.924;2023-09-07T04:12:22;97705.19;;;21.87;100.00
8697;BME280;4385;48.848;8.924;2023-09-07T04:14:47;97709.41;;;21.88;100.00
8697;BME280;4385;48.848;8.924;2023-09-07T04:17:12;97710.31;;;21.87;100.00
8697;BME280;4385;48.848;8.924;2023-09-07T04:19:38;97714.59;;;21.86;100.00
8697;BME280;4385;48.848;8.924;2023-09-07T04:22:03;97712.03;;;21.86;100.00
8697;BME280;4385;48.848;8.924;2023-09-07T04:24:28;97710.31;;;21.87;100.00
8697;BME280;4385;48.848;8.924;2023-09-07T04:26:58;97715.44;;;21.87;100.00
8697;BME280;4385;48.848;8.924;2023-09-07T04:29:24;97708.59;;;21.86;100.00
8697;BME280;4385;48.848;8.924;2023-09-07T04:31:50;97708.59;;;21.86;100.00
8697;BME280;4385;48.848;8.924;2023-09-07T04:34:15;97708.59;;;21.86;100.00
8697;BME280;4385;48.848;8.924;2023-09-07T04:36:40;97706.09;;;21.84;100.00
8697;BME280;4385;48.848;8.924;2023-09-07T04:39:06;97709.56;;;21.83;100.00
8697;BME280;4385;48.848;8.924;2023-09-07T04:41:31;97712.13;;;21.83;100.00
8697;BME280;4385;48.848;8.924;2023-09-07T04:43:56;97708.75;;;21.81;100.00
8697;BME280;4385;48.848;8.924;2023-09-07T04:46:22;97714.78;;;21.80;100.00
8697;BME280;4385;48.848;8.924;2023-09-07T04:48:48;97716.50;;;21.79;100.00
8697;BME280;4385;48.848;8.924;2023-09-07T04:51:14;97712.28;;;21.78;100.00
8697;BME280;4385;48.848;8.924;2023-09-07T04:53:39;97713.16;;;21.77;100.00
8697;BME280;4385;48.848;8.924;2023-09-07T04:56:06;97714.03;;;21.76;100.00
8697;BME280;4385;48.848;8.924;2023-09-07T04:58:32;97721.69;;;21.78;100.00
8697;BME280;4385;48.848;8.924;2023-09-07T05:01:04;97719.13;;;21.78;100.00
8697;BME280;4385;48.848;8.924;2023-09-07T05:03:30;97712.31;;;21.77;100.00
8697;BME280;4385;48.848;8.924;2023-09-07T05:05:56;97722.53;;;21.78;100.00
8697;BME280;4385;48.848;8.924;2023-09-07T05:08:22;97718.25;;;21.79;100.00
8697;BME280;4385;48.848;8.924;2023-09-07T05:10:54;97720.81;;;21.79;100.00
8697;BME280;4385;48.848;8.924;2023-09-07T05:13:19;97720.88;;;21.77;100.00
8697;BME280;4385;48.848;8.924;2023-09-07T05:15:48;97718.25;;;21.79;100.00
8697;BME280;4385;48.848;8.924;2023-09-07T05:18:14;97720.81;;;21.79;100.00
8697;BME280;4385;48.848;8.924;2023-09-07T05:20:39;97721.69;;;21.78;100.00
8697;BME280;4385;48.848;8.924;2023-09-07T05:23:04;97725.16;;;21.77;100.00
8697;BME280;4385;48.848;8.924;2023-09-07T05:25:30;97724.28;;;21.76;100.00
8697;BME280;4385;48.848;8.924;2023-09-07T05:27:55;97720.88;;;21.77;100.00
8697;BME280;4385;48.848;8.924;2023-09-07T05:30:20;97730.28;;;21.77;100.00
8697;BME280;4385;48.848;8.924;2023-09-07T05:32:45;97732.84;;;21.75;100.00
8697;BME280;4385;48.848;8.924;2023-09-07T05:35:11;97731.19;;;21.74;100.00
8697;BME280;4385;48.848;8.924;2023-09-07T05:37:37;97731.19;;;21.74;100.00
8697;BME280;4385;48.848;8.924;2023-09-07T05:40:02;97733.81;;;21.73;100.00
8697;BME280;4385;48.848;8.924;2023-09-07T05:42:29;97734.63;;;21.73;100.00
8697;BME280;4385;48.848;8.924;2023-09-07T05:44:54;97737.22;;;21.72;100.00
8697;BME280;4385;48.848;8.924;2023-09-07T05:47:19;97737.38;;;21.67;100.00
8697;BME280;4385;48.848;8.924;2023-09-07T05:49:45;97740.00;;;21.65;100.00
8697;BME280;4385;48.848;8.924;2023-09-07T05:52:10;97737.53;;;21.62;100.00
8697;BME280;4385;48.848;8.924;2023-09-07T05:54:35;97740.13;;;21.61;100.00
8697;BME280;4385;48.848;8.924;2023-09-07T05:57:00;97740.13;;;21.61;100.00
8697;BME280;4385;48.848;8.924;2023-09-07T05:59:26;97740.97;;;21.61;100.00
8697;BME280;4385;48.848;8.924;2023-09-07T06:01:51;97737.56;;;21.61;100.00
8697;BME280;4385;48.848;8.924;2023-09-07T06:04:16;97738.41;;;21.61;100.00
8697;BME280;4385;48.848;8.924;2023-09-07T06:06:41;97740.03;;;21.64;100.00
8697;BME280;4385;48.848;8.924;2023-09-07T06:09:07;97734.91;;;21.64;100.00
8697;BME280;4385;48.848;8.924;2023-09-07T06:11:32;97738.28;;;21.66;100.00
8697;BME280;4385;48.848;8.924;2023-09-07T06:13:58;97734.81;;;21.67;100.00
8697;BME280;4385;48.848;8.924;2023-09-07T06:16:23;97737.38;;;21.67;100.00
8697;BME280;4385;48.848;8.924;2023-09-07T06:18:48;97734.81;;;21.67;100.00
8697;BME280;4385;48.848;8.924;2023-09-07T06:21:14;97732.25;;;21.67;100.00
8697;BME280;4385;48.848;8.924;2023-09-07T06:23:39;97728.81;;;21.68;100.00
8697;BME280;4385;48.848;8.924;2023-09-07T06:26:04;97739.06;;;21.68;100.00
8697;BME280;4385;48.848;8.924;2023-09-07T06:28:30;97741.66;;;21.68;100.00
8697;BME280;4385;48.848;8.924;2023-09-07T06:30:55;97738.22;;;21.67;100.00
8697;BME280;4385;48.848;8.924;2023-09-07T06:33:20;97734.81;;;21.67;100.00
8697;BME280;4385;48.848;8.924;2023-09-07T06:35:45;97734.81;;;21.67;100.00
8697;BME280;4385;48.848;8.924;2023-09-07T06:38:11;97734.00;;;21.66;100.00
8697;BME280;4385;48.848;8.924;2023-09-07T06:40:36;97738.22;;;21.67;100.00
8697;BME280;4385;48.848;8.924;2023-09-07T06:43:01;97741.66;;;21.68;100.00
8697;BME280;4385;48.848;8.924;2023-09-07T06:45:34;97743.41;;;21.66;100.00
8697;BME280;4385;48.848;8.924;2023-09-07T06:47:59;97741.69;;;21.66;100.00
8697;BME280;4385;48.848;8.924;2023-09-07T06:50:24;97748.53;;;21.66;100.00
8697;BME280;4385;48.848;8.924;2023-09-07T06:52:49;97751.09;;;21.66;100.00
8697;BME280;4385;48.848;8.924;2023-09-07T06:55:16;97755.38;;;21.65;100.00
8697;BME280;4385;48.848;8.924;2023-09-07T06:57:41;97755.44;;;21.64;100.00
8697;BME280;4385;48.848;8.924;2023-09-07T07:00:07;97757.94;;;21.65;100.00
8697;BME280;4385;48.848;8.924;2023-09-07T07:02:33;97762.25;;;21.65;100.00
8697;BME280;4385;48.848;8.924;2023-09-07T07:04:59;97765.69;;;21.64;100.00
8697;BME280;4385;48.848;8.924;2023-09-07T07:07:24;97760.56;;;21.64;100.00
8697;BME280;4385;48.848;8.924;2023-09-07T07:09:50;97764.03;;;21.63;100.00
8697;BME280;4385;48.848;8.924;2023-09-07T07:12:15;97764.03;;;21.63;100.00
8697;BME280;4385;48.848;8.924;2023-09-07T07:14:41;97766.59;;;21.63;100.00
8697;BME280;4385;48.848;8.924;2023-09-07T07:17:06;97767.47;;;21.62;100.00
8697;BME280;4385;48.848;8.924;2023-09-07T07:19:31;97769.16;;;21.63;100.00
8697;BME280;4385;48.848;8.924;2023-09-07T07:21:56;97771.72;;;21.63;100.00
8697;BME280;4385;48.848;8.924;2023-09-07T07:24:22;97775.91;;;21.65;100.00
8697;BME280;4385;48.848;8.924;2023-09-07T07:26:47;97767.44;;;21.63;100.00
8697;BME280;4385;48.848;8.924;2023-09-07T07:29:12;97770.81;;;21.64;100.00
8697;BME280;4385;48.848;8.924;2023-09-07T07:31:38;97769.16;;;21.63;100.00
8697;BME280;4385;48.848;8.924;2023-09-07T07:34:03;97766.53;;;21.64;100.00
8697;BME280;4385;48.848;8.924;2023-09-07T07:36:29;97762.25;;;21.65;100.00
8697;BME280;4385;48.848;8.924;2023-09-07T07:38:54;97761.41;;;21.64;100.00
8697;BME280;4385;48.848;8.924;2023-09-07T07:41:20;97764.78;;;21.66;100.00
8697;BME280;4385;48.848;8.924;2023-09-07T07:43:45;97764.78;;;21.66;100.00
8697;BME280;4385;48.848;8.924;2023-09-07T07:46:10;97760.47;;;21.67;100.00
8697;BME280;4385;48.848;8.924;2023-09-07T07:48:35;97757.03;;;21.68;100.00
8697;BME280;4385;48.848;8.924;2023-09-07T07:51:04;97762.16;;;21.68;100.00
8697;BME280;4385;48.848;8.924;2023-09-07T07:53:30;97748.44;;;21.69;100.00
8697;BME280;4385;48.848;8.924;2023-09-07T07:55:56;97761.25;;;21.69;100.00
8697;BME280;4385;48.848;8.924;2023-09-07T07:58:22;97763.81;;;21.69;100.00
8697;BME280;4385;48.848;8.924;2023-09-07T08:00:47;97753.56;;;21.69;100.00
8697;BME280;4385;48.848;8.924;2023-09-07T08:03:14;97749.34;;;21.68;100.00
8697;BME280;4385;48.848;8.924;2023-09-07T08:05:40;97753.56;;;21.69;100.00
8697;BME280;4385;48.848;8.924;2023-09-07T08:08:05;97749.28;;;21.70;100.00
8697;BME280;4385;48.848;8.924;2023-09-07T08:10:35;97750.09;;;21.70;100.00
8697;BME280;4385;48.848;8.924;2023-09-07T08:13:02;97753.56;;;21.69;100.00
8697;BME280;4385;48.848;8.924;2023-09-07T08:15:28;97745.03;;;21.68;100.00
8697;BME280;4385;48.848;8.924;2023-09-07T08:17:53;97749.25;;;21.71;100.00
8697;BME280;4385;48.848;8.924;2023-09-07T08:20:18;97750.09;;;21.70;100.00
8697;BME280;4385;48.848;8.924;2023-09-07T08:22:44;97750.97;;;21.71;100.00
8697;BME280;4385;48.848;8.924;2023-09-07T08:25:11;97750.97;;;21.71;100.00
8697;BME280;4385;48.848;8.924;2023-09-07T08:27:43;97752.63;;;21.72;100.00
8697;BME280;4385;48.848;8.924;2023-09-07T08:30:12;97756.94;;;21.71;100.00
8697;BME280;4385;48.848;8.924;2023-09-07T08:32:38;97749.19;;;21.73;100.00
8697;BME280;4385;48.848;8.924;2023-09-07T08:35:05;97748.34;;;21.72;100.00
8697;BME280;4385;48.848;8.924;2023-09-07T08:37:33;97748.34;;;21.72;100.00
8697;BME280;4385;48.848;8.924;2023-09-07T08:39:58;97753.47;;;21.72;100.00
8697;BME280;4385;48.848;8.924;2023-09-07T08:42:24;97746.69;;;21.71;100.00
8697;BME280;4385;48.848;8.924;2023-09-07T08:44:50;97745.81;;;21.71;100.00
8697;BME280;4385;48.848;8.924;2023-09-07T08:47:17;97753.53;;;21.71;100.00
8697;BME280;4385;48.848;8.924;2023-09-07T08:49:44;97756.13;;;21.69;100.00
8697;BME280;4385;48.848;8.924;2023-09-07T08:52:11;97751.00;;;21.69;100.00
8697;BME280;4385;48.848;8.924;2023-09-07T08:54:38;97758.69;;;21.69;100.00
8697;BME280;4385;48.848;8.924;2023-09-07T08:57:04;97752.66;;;21.70;100.00
8697;BME280;4385;48.848;8.924;2023-09-07T08:59:30;97754.41;;;21.70;100.00
8697;BME280;4385;48.848;8.924;2023-09-07T09:01:58;97748.34;;;21.72;100.00
8697;BME280;4385;48.848;8.924;2023-09-07T09:04:25;97751.75;;;21.73;100.00
8697;BME280;4385;48.848;8.924;2023-09-07T09:06:50;97751.75;;;21.73;100.00
8697;BME280;4385;48.848;8.924;2023-09-07T09:09:24;97753.41;;;21.74;100.00
8697;BME280;4385;48.848;8.924;2023-09-07T09:11:50;97761.13;;;21.74;100.00
8697;BME280;4385;48.848;8.924;2023-09-07T09:14:18;97754.28;;;21.74;100.00
8697;BME280;4385;48.848;8.924;2023-09-07T09:16:50;97757.66;;;21.75;100.00
8697;BME280;4385;48.848;8.924;2023-09-07T09:19:16;97756.00;;;21.74;100.00
8697;BME280;4385;48.848;8.924;2023-09-07T09:21:41;97759.41;;;21.74;100.00
8697;BME280;4385;48.848;8.924;2023-09-07T09:24:10;97753.38;;;21.75;100.00
8697;BME280;4385;48.848;8.924;2023-09-07T09:26:39;97754.28;;;21.74;100.00
8697;BME280;4385;48.848;8.924;2023-09-07T09:29:04;97753.38;;;21.75;100.00
8697;BME280;4385;48.848;8.924;2023-09-07T09:31:30;97749.97;;;21.75;100.00
8697;BME280;4385;48.848;8.924;2023-09-07T09:33:56;97753.38;;;21.75;100.00
8697;BME280;4385;48.848;8.924;2023-09-07T09:36:21;97741.44;;;21.74;100.00
8697;BME280;4385;48.848;8.924;2023-09-07T09:38:48;97741.44;;;21.74;100.00
8697;BME280;4385;48.848;8.924;2023-09-07T09:41:16;97742.31;;;21.73;100.00
8697;BME280;4385;48.848;8.924;2023-09-07T09:43:42;97738.03;;;21.74;100.00
8697;BME280;4385;48.848;8.924;2023-09-07T09:46:09;97736.38;;;21.73;100.00
8697;BME280;4385;48.848;8.924;2023-09-07T09:48:35;97742.31;;;21.73;100.00
8697;BME280;4385;48.848;8.924;2023-09-07T09:51:03;97732.97;;;21.72;100.00
8697;BME280;4385;48.848;8.924;2023-09-07T09:53:29;97739.75;;;21.73;100.00
8697;BME280;4385;48.848;8.924;2023-09-07T09:55:55;97726.06;;;21.74;100.00
8697;BME280;4385;48.848;8.924;2023-09-07T09:58:20;97740.56;;;21.75;100.00
8697;BME280;4385;48.848;8.924;2023-09-07T10:00:48;97732.84;;;21.75;100.00
8697;BME280;4385;48.848;8.924;2023-09-07T10:03:20;97729.41;;;21.76;100.00
8697;BME280;4385;48.848;8.924;2023-09-07T10:05:49;97734.56;;;21.76;100.00
8697;BME280;4385;48.848;8.924;2023-09-07T10:08:17;97739.69;;;21.76;100.00
8697;BME280;4385;48.848;8.924;2023-09-07T10:10:43;97733.69;;;21.77;100.00
8697;BME280;4385;48.848;8.924;2023-09-07T10:13:12;97743.09;;;21.77;100.00
8697;BME280;4385;48.848;8.924;2023-09-07T10:15:38;97738.81;;;21.77;100.00
8697;BME280;4385;48.848;8.924;2023-09-07T10:18:08;97743.06;;;21.78;100.00
8697;BME280;4385;48.848;8.924;2023-09-07T10:20:54;97737.91;;;21.78;100.00
8697;BME280;4385;48.848;8.924;2023-09-07T10:23:21;97739.59;;;21.79;100.00
8697;BME280;4385;48.848;8.924;2023-09-07T10:25:49;97737.88;;;21.80;100.00
8697;BME280;4385;48.848;8.924;2023-09-07T10:28:24;97734.47;;;21.79;100.00
8697;BME280;4385;48.848;8.924;2023-09-07T10:31:00;97728.47;;;21.80;100.00
8697;BME280;4385;48.848;8.924;2023-09-07T10:33:26;97720.75;;;21.80;100.00
8697;BME280;4385;48.848;8.924;2023-09-07T10:35:52;97718.19;;;21.80;100.00
8697;BME280;4385;48.848;8.924;2023-09-07T10:38:17;97713.06;;;21.80;100.00
8697;BME280;4385;48.848;8.924;2023-09-07T10:40:44;97714.75;;;21.82;100.00
8697;BME280;4385;48.848;8.924;2023-09-07T10:43:13;97707.94;;;21.80;100.00
8697;BME280;4385;48.848;8.924;2023-09-07T10:45:38;97720.72;;;21.82;100.00
8697;BME280;4385;48.848;8.924;2023-09-07T10:48:04;97713.84;;;21.83;100.00
8697;BME280;4385;48.848;8.924;2023-09-07T10:50:29;97712.13;;;21.83;100.00
8697;BME280;4385;48.848;8.924;2023-09-07T10:52:55;97710.41;;;21.84;100.00
8697;BME280;4385;48.848;8.924;2023-09-07T10:55:21;97704.44;;;21.83;100.00
8697;BME280;4385;48.848;8.924;2023-09-07T10:57:47;97710.41;;;21.84;100.00
8697;BME280;4385;48.848;8.924;2023-09-07T11:00:13;97707.00;;;21.83;100.00
8697;BME280;4385;48.848;8.924;2023-09-07T11:02:40;97700.16;;;21.84;100.00
8697;BME280;4385;48.848;8.924;2023-09-07T11:05:06;97706.09;;;21.84;100.00
8697;BME280;4385;48.848;8.924;2023-09-07T11:07:32;97699.25;;;21.85;100.00
8697;BME280;4385;48.848;8.924;2023-09-07T11:09:58;97700.16;;;21.84;100.00
8697;BME280;4385;48.848;8.924;2023-09-07T11:12:23;97696.69;;;21.85;100.00
8697;BME280;4385;48.848;8.924;2023-09-07T11:14:50;97696.69;;;21.85;100.00
8697;BME280;4385;48.848;8.924;2023-09-07T11:17:16;97691.56;;;21.85;100.00
8697;BME280;4385;48.848;8.924;2023-09-07T11:19:41;97688.97;;;21.85;100.00
8697;BME280;4385;48.848;8.924;2023-09-07T11:22:10;97699.25;;;21.85;100.00
8697;BME280;4385;48.848;8.924;2023-09-07T11:24:36;97693.22;;;21.86;100.00
8697;BME280;4385;48.848;8.924;2023-09-07T11:27:01;97693.22;;;21.86;100.00
8697;BME280;4385;48.848;8.924;2023-09-07T11:29:31;97686.38;;;21.86;100.00
8697;BME280;4385;48.848;8.924;2023-09-07T11:32:09;97686.31;;;21.88;100.00
8697;BME280;4385;48.848;8.924;2023-09-07T11:34:34;97691.44;;;21.88;100.00
8697;BME280;4385;48.848;8.924;2023-09-07T11:37:02;97689.69;;;21.90;100.00
8697;BME280;4385;48.848;8.924;2023-09-07T11:39:27;97692.25;;;21.90;100.00
8697;BME280;4385;48.848;8.924;2023-09-07T11:41:53;97689.69;;;21.90;100.00
8697;BME280;4385;48.848;8.924;2023-09-07T11:44:18;97693.91;;;21.91;100.00
8697;BME280;4385;48.848;8.924;2023-09-07T11:46:43;97687.88;;;21.92;100.00
8697;BME280;4385;48.848;8.924;2023-09-07T11:49:08;97693.00;;;21.92;100.00
8697;BME280;4385;48.848;8.924;2023-09-07T11:51:34;97686.16;;;21.92;100.00
8697;BME280;4385;48.848;8.924;2023-09-07T11:54:01;97680.19;;;21.92;100.00
8697;BME280;4385;48.848;8.924;2023-09-07T11:56:27;97682.75;;;21.92;100.00
8697;BME280;4385;48.848;8.924;2023-09-07T11:58:52;97684.44;;;21.93;100.00
8697;BME280;4385;48.848;8.924;2023-09-07T12:01:17;97681.88;;;21.93;100.00
8697;BME280;4385;48.848;8.924;2023-09-07T12:03:43;97680.97;;;21.94;100.00
8697;BME280;4385;48.848;8.924;2023-09-07T12:06:08;97683.53;;;21.94;100.00
8697;BME280;4385;48.848;8.924;2023-09-07T12:08:34;97674.94;;;21.95;100.00
8697;BME280;4385;48.848;8.924;2023-09-07T12:10:59;97677.53;;;21.95;100.00
8697;BME280;4385;48.848;8.924;2023-09-07T12:13:25;97669.81;;;21.95;100.00
8697;BME280;4385;48.848;8.924;2023-09-07T12:15:51;97670.66;;;21.96;100.00
8697;BME280;4385;48.848;8.924;2023-09-07T12:18:16;97663.81;;;21.96;100.00
8697;BME280;4385;48.848;8.924;2023-09-07T12:20:42;97675.75;;;21.97;100.00
8697;BME280;4385;48.848;8.924;2023-09-07T12:23:08;97668.91;;;21.98;100.00
8697;BME280;4385;48.848;8.924;2023-09-07T12:25:33;97669.72;;;21.98;100.00
8697;BME280;4385;48.848;8.924;2023-09-07T12:27:58;97670.50;;;22.00;100.00
8697;BME280;4385;48.848;8.924;2023-09-07T12:30:24;97672.19;;;22.01;100.00
8697;BME280;4385;48.848;8.924;2023-09-07T12:32:50;97673.94;;;22.01;100.00
8697;BME280;4385;48.848;8.924;2023-09-07T12:35:16;97672.19;;;22.01;100.00
8697;BME280;4385;48.848;8.924;2023-09-07T12:37:41;97674.69;;;22.03;100.00
8697;BME280;4385;48.848;8.924;2023-09-07T12:40:07;97670.41;;;22.03;100.00
8697;BME280;4385;48.848;8.924;2023-09-07T12:42:44;97667.00;;;22.03;100.00
8697;BME280;4385;48.848;8.924;2023-09-07T12:45:11;97661.03;;;22.02;100.00
8697;BME280;4385;48.848;8.924;2023-09-07T12:47:37;97673.03;;;22.02;100.00
8697;BME280;4385;48.848;8.924;2023-09-07T12:50:03;97667.84;;;22.03;100.00
8697;BME280;4385;48.848;8.924;2023-09-07T12:52:30;97660.16;;;22.03;100.00
8697;BME280;4385;48.848;8.924;2023-09-07T12:54:55;97660.16;;;22.03;100.00
8697;BME280;4385;48.848;8.924;2023-09-07T12:57:20;97653.25;;;22.05;100.00
8697;BME280;4385;48.848;8.924;2023-09-07T12:59:45;97660.03;;;22.07;100.00
8697;BME280;4385;48.848;8.924;2023-09-07T13:02:11;97654.91;;;22.07;100.00
8697;BME280;4385;48.848;8.924;2023-09-07T13:04:36;97654.91;;;22.07;100.00